sensor_id;sensor_type;location;lat;lon;timestamp;temperature;humidity
43541;DHT22;29549;40.386;-3.710;2023-05-21T00:04:47;15.70;42.20
43541;DHT22;29549;40.386;-3.710;2023-05-21T00:14:47;15.40;42.70
43541;DHT22;29549;40.386;-3.710;2023-05-21T00:24:48;15.40;43.00
43541;DHT22;29549;40.386;-3.710;2023-05-21T00:34:48;15.30;43.30
43541;DHT22;29549;40.386;-3.710;2023-05-21T00:44:49;15.30;43.40
43541;DHT22;29549;40.386;-3.710;2023-05-21T00:54:50;15.00;44.20
43541;DHT22;29549;40.386;-3.710;2023-05-21T01:04:54;14.90;44.50
43541;DHT22;29549;40.386;-3.710;2023-05-21T01:14:55;15.00;44.50
43541;DHT22;29549;40.386;-3.710;2023-05-21T01:24:56;14.80;45.00
43541;DHT22;29549;40.386;-3.710;2023-05-21T01:44:58;14.60;45.60
43541;DHT22;29549;40.386;-3.710;2023-05-21T01:54:59;14.60;45.80
43541;DHT22;29549;40.386;-3.710;2023-05-21T02:05:00;14.40;46.30
43541;DHT22;29549;40.386;-3.710;2023-05-21T02:15:01;14.40;46.60
43541;DHT22;29549;40.386;-3.710;2023-05-21T02:25:02;14.20;46.80
43541;DHT22;29549;40.386;-3.710;2023-05-21T02:35:03;14.30;46.80
43541;DHT22;29549;40.386;-3.710;2023-05-21T02:45:07;14.20;47.00
43541;DHT22;29549;40.386;-3.710;2023-05-21T02:55:08;14.20;46.90
43541;DHT22;29549;40.386;-3.710;2023-05-21T03:05:08;14.20;46.90
43541;DHT22;29549;40.386;-3.710;2023-05-21T03:15:09;14.20;46.90
43541;DHT22;29549;40.386;-3.710;2023-05-21T03:25:10;14.20;46.70
43541;DHT22;29549;40.386;-3.710;2023-05-21T03:35:11;14.20;46.70
43541;DHT22;29549;40.386;-3.710;2023-05-21T03:45:12;14.10;46.90
43541;DHT22;29549;40.386;-3.710;2023-05-21T03:55:12;14.10;47.00
43541;DHT22;29549;40.386;-3.710;2023-05-21T04:05:13;13.90;47.40
43541;DHT22;29549;40.386;-3.710;2023-05-21T04:15:14;13.80;47.90
43541;DHT22;29549;40.386;-3.710;2023-05-21T04:25:18;13.90;47.90
43541;DHT22;29549;40.386;-3.710;2023-05-21T04:35:19;14.00;47.70
43541;DHT22;29549;40.386;-3.710;2023-05-21T04:45:20;14.00;47.90
43541;DHT22;29549;40.386;-3.710;2023-05-21T04:55:23;13.90;48.20
43541;DHT22;29549;40.386;-3.710;2023-05-21T05:05:24;13.80;48.30
43541;DHT22;29549;40.386;-3.710;2023-05-21T05:15:25;13.90;48.30
43541;DHT22;29549;40.386;-3.710;2023-05-21T05:25:25;14.00;48.30
43541;DHT22;29549;40.386;-3.710;2023-05-21T05:35:26;14.00;48.30
43541;DHT22;29549;40.386;-3.710;2023-05-21T05:45:27;14.20;48.00
43541;DHT22;29549;40.386;-3.710;2023-05-21T05:55:27;14.10;48.10
43541;DHT22;29549;40.386;-3.710;2023-05-21T06:05:28;14.30;48.10
43541;DHT22;29549;40.386;-3.710;2023-05-21T06:15:29;14.20;48.20
43541;DHT22;29549;40.386;-3.710;2023-05-21T06:25:29;14.10;48.60
43541;DHT22;29549;40.386;-3.710;2023-05-21T06:35:31;14.20;48.50
43541;DHT22;29549;40.386;-3.710;2023-05-21T06:45:34;14.30;48.20
43541;DHT22;29549;40.386;-3.710;2023-05-21T06:55:34;14.50;49.10
43541;DHT22;29549;40.386;-3.710;2023-05-21T07:05:35;14.50;51.30
43541;DHT22;29549;40.386;-3.710;2023-05-21T07:15:36;14.60;51.10
43541;DHT22;29549;40.386;-3.710;2023-05-21T07:25:36;14.70;51.20
43541;DHT22;29549;40.386;-3.710;2023-05-21T07:35:37;14.70;49.50
43541;DHT22;29549;40.386;-3.710;2023-05-21T07:45:38;14.70;49.90
43541;DHT22;29549;40.386;-3.710;2023-05-21T07:55:38;14.80;50.70
43541;DHT22;29549;40.386;-3.710;2023-05-21T08:05:46;15.00;51.30
43541;DHT22;29549;40.386;-3.710;2023-05-21T08:15:50;15.20;51.10
43541;DHT22;29549;40.386;-3.710;2023-05-21T08:25:51;15.60;50.00
43541;DHT22;29549;40.386;-3.710;2023-05-21T08:35:52;16.10;48.70
43541;DHT22;29549;40.386;-3.710;2023-05-21T08:45:54;16.50;47.40
43541;DHT22;29549;40.386;-3.710;2023-05-21T08:55:55;17.00;45.80
43541;DHT22;29549;40.386;-3.710;2023-05-21T09:05:56;17.20;45.30
43541;DHT22;29549;40.386;-3.710;2023-05-21T09:15:57;17.60;44.00
43541;DHT22;29549;40.386;-3.710;2023-05-21T09:25:58;17.90;42.60
43541;DHT22;29549;40.386;-3.710;2023-05-21T09:35:59;18.30;41.80
43541;DHT22;29549;40.386;-3.710;2023-05-21T09:46:01;18.70;41.20
43541;DHT22;29549;40.386;-3.710;2023-05-21T09:56:04;18.80;40.60
43541;DHT22;29549;40.386;-3.710;2023-05-21T10:06:06;19.20;39.70
43541;DHT22;29549;40.386;-3.710;2023-05-21T10:16:07;19.30;39.50
43541;DHT22;29549;40.386;-3.710;2023-05-21T10:26:08;19.70;38.60
43541;DHT22;29549;40.386;-3.710;2023-05-21T10:36:09;19.70;38.30
43541;DHT22;29549;40.386;-3.710;2023-05-21T10:46:14;19.60;38.50
43541;DHT22;29549;40.386;-3.710;2023-05-21T10:56:30;19.80;37.50
43541;DHT22;29549;40.386;-3.710;2023-05-21T11:06:32;20.10;37.40
43541;DHT22;29549;40.386;-3.710;2023-05-21T11:16:32;20.20;37.00
43541;DHT22;29549;40.386;-3.710;2023-05-21T11:36:48;20.70;36.20
43541;DHT22;29549;40.386;-3.710;2023-05-21T11:46:49;20.90;36.00
43541;DHT22;29549;40.386;-3.710;2023-05-21T11:56:50;21.10;35.60
43541;DHT22;29549;40.386;-3.710;2023-05-21T12:06:51;21.20;35.60
43541;DHT22;29549;40.386;-3.710;2023-05-21T12:16:52;21.60;34.70
43541;DHT22;29549;40.386;-3.710;2023-05-21T12:26:53;21.60;34.90
43541;DHT22;29549;40.386;-3.710;2023-05-21T12:36:54;21.60;34.50
43541;DHT22;29549;40.386;-3.710;2023-05-21T12:46:55;21.60;34.00
43541;DHT22;29549;40.386;-3.710;2023-05-21T12:56:56;21.30;35.10
43541;DHT22;29549;40.386;-3.710;2023-05-21T13:06:56;21.00;45.70
43541;DHT22;29549;40.386;-3.710;2023-05-21T13:16:57;20.20;52.70
43541;DHT22;29549;40.386;-3.710;2023-05-21T13:26:58;19.50;53.30
43541;DHT22;29549;40.386;-3.710;2023-05-21T13:36:58;19.50;53.20
43541;DHT22;29549;40.386;-3.710;2023-05-21T13:46:59;19.60;54.50
43541;DHT22;29549;40.386;-3.710;2023-05-21T13:56:59;19.70;53.00
43541;DHT22;29549;40.386;-3.710;2023-05-21T14:07:00;20.10;51.80
43541;DHT22;29549;40.386;-3.710;2023-05-21T14:17:02;20.60;43.60
43541;DHT22;29549;40.386;-3.710;2023-05-21T14:27:03;21.20;38.30
43541;DHT22;29549;40.386;-3.710;2023-05-21T14:37:03;21.40;36.20
43541;DHT22;29549;40.386;-3.710;2023-05-21T14:47:04;21.70;34.00
43541;DHT22;29549;40.386;-3.710;2023-05-21T14:57:04;21.80;34.10
43541;DHT22;29549;40.386;-3.710;2023-05-21T15:07:05;21.90;32.90
43541;DHT22;29549;40.386;-3.710;2023-05-21T15:17:06;22.00;32.20
43541;DHT22;29549;40.386;-3.710;2023-05-21T15:27:07;22.20;32.10
43541;DHT22;29549;40.386;-3.710;2023-05-21T15:37:08;22.20;34.90
43541;DHT22;29549;40.386;-3.710;2023-05-21T15:47:08;22.00;35.40
43541;DHT22;29549;40.386;-3.710;2023-05-21T15:57:09;21.80;34.70
43541;DHT22;29549;40.386;-3.710;2023-05-21T16:07:10;21.80;34.80
43541;DHT22;29549;40.386;-3.710;2023-05-21T16:17:10;21.70;35.90
43541;DHT22;29549;40.386;-3.710;2023-05-21T16:27:11;21.70;35.40
43541;DHT22;29549;40.386;-3.710;2023-05-21T16:37:11;21.40;35.40
43541;DHT22;29549;40.386;-3.710;2023-05-21T16:47:12;21.30;36.20
43541;DHT22;29549;40.386;-3.710;2023-05-21T16:57:13;21.40;36.50
43541;DHT22;29549;40.386;-3.710;2023-05-21T17:07:14;21.20;38.00
43541;DHT22;29549;40.386;-3.710;2023-05-21T17:17:14;20.90;43.00
43541;DHT22;29549;40.386;-3.710;2023-05-21T17:27:15;20.20;45.50
43541;DHT22;29549;40.386;-3.710;2023-05-21T17:37:16;19.60;47.00
43541;DHT22;29549;40.386;-3.710;2023-05-21T17:47:16;19.60;47.00
43541;DHT22;29549;40.386;-3.710;2023-05-21T17:57:17;19.60;46.90
43541;DHT22;29549;40.386;-3.710;2023-05-21T18:07:19;19.40;46.90
43541;DHT22;29549;40.386;-3.710;2023-05-21T18:17:21;19.20;47.20
43541;DHT22;29549;40.386;-3.710;2023-05-21T18:27:22;19.40;47.30
43541;DHT22;29549;40.386;-3.710;2023-05-21T18:37:22;19.20;49.40
43541;DHT22;29549;40.386;-3.710;2023-05-21T18:47:23;19.20;48.80
43541;DHT22;29549;40.386;-3.710;2023-05-21T18:57:23;19.10;50.30
43541;DHT22;29549;40.386;-3.710;2023-05-21T19:07:24;18.90;48.90
43541;DHT22;29549;40.386;-3.710;2023-05-21T19:17:25;18.70;49.00
43541;DHT22;29549;40.386;-3.710;2023-05-21T19:27:25;18.50;49.50
43541;DHT22;29549;40.386;-3.710;2023-05-21T19:37:28;18.40;50.30
43541;DHT22;29549;40.386;-3.710;2023-05-21T19:47:29;18.30;51.00
43541;DHT22;29549;40.386;-3.710;2023-05-21T19:57:30;18.20;52.40
43541;DHT22;29549;40.386;-3.710;2023-05-21T20:07:31;18.00;53.40
43541;DHT22;29549;40.386;-3.710;2023-05-21T20:17:32;17.80;53.70
43541;DHT22;29549;40.386;-3.710;2023-05-21T20:27:37;17.70;53.40
43541;DHT22;29549;40.386;-3.710;2023-05-21T20:37:38;17.60;53.50
43541;DHT22;29549;40.386;-3.710;2023-05-21T20:47:39;17.60;53.30
43541;DHT22;29549;40.386;-3.710;2023-05-21T20:57:40;17.70;52.80
43541;DHT22;29549;40.386;-3.710;2023-05-21T21:07:41;17.80;51.80
43541;DHT22;29549;40.386;-3.710;2023-05-21T21:17:42;17.90;52.20
43541;DHT22;29549;40.386;-3.710;2023-05-21T21:27:42;18.00;55.00
43541;DHT22;29549;40.386;-3.710;2023-05-21T21:37:43;18.00;54.40
43541;DHT22;29549;40.386;-3.710;2023-05-21T21:47:44;18.10;51.50
43541;DHT22;29549;40.386;-3.710;2023-05-21T21:57:44;18.10;50.00
43541;DHT22;29549;40.386;-3.710;2023-05-21T22:07:45;18.30;47.30
43541;DHT22;29549;40.386;-3.710;2023-05-21T22:17:46;18.20;46.90
43541;DHT22;29549;40.386;-3.710;2023-05-21T22:27:47;18.30;48.90
43541;DHT22;29549;40.386;-3.710;2023-05-21T22:37:48;18.40;47.60
43541;DHT22;29549;40.386;-3.710;2023-05-21T22:47:48;18.40;45.70
43541;DHT22;29549;40.386;-3.710;2023-05-21T22:57:51;18.40;45.60
43541;DHT22;29549;40.386;-3.710;2023-05-21T23:07:51;18.30;45.00
43541;DHT22;29549;40.386;-3.710;2023-05-21T23:17:52;18.20;45.30
43541;DHT22;29549;40.386;-3.710;2023-05-21T23:27:53;18.10;45.00
43541;DHT22;29549;40.386;-3.710;2023-05-21T23:37:53;18.10;43.60
43541;DHT22;29549;40.386;-3.710;2023-05-21T23:47:54;18.10;43.40
43541;DHT22;29549;40.386;-3.710;2023-05-21T23:57:54;18.00;43.40
